createdAt,value
2023-05-14T00:00:04.219Z,102090.19
2023-05-14T00:02:30.791Z,102091.28
2023-05-14T00:04:57.360Z,102087.72
2023-05-14T00:07:30.654Z,102097.56
2023-05-14T00:09:58.171Z,102086.34
2023-05-14T00:12:25.095Z,102087.16
2023-05-14T00:14:52.317Z,102085.53
2023-05-14T00:17:19.218Z,102084.97
2023-05-14T00:19:46.060Z,102074.03
2023-05-14T00:22:12.620Z,102075.13
2023-05-14T00:24:39.279Z,102068.84
2023-05-14T00:27:06.685Z,102071.84
2023-05-14T00:29:33.209Z,102070.75
2023-05-14T00:31:59.688Z,102066.63
2023-05-14T00:34:26.192Z,102062.81
2023-05-14T00:36:52.884Z,102061.16
2023-05-14T00:39:19.447Z,102065.81
2023-05-14T00:41:45.979Z,102073.19
2023-05-14T00:44:12.502Z,102069.66
2023-05-14T00:46:39.113Z,102067.16
2023-05-14T00:49:05.701Z,102069.66
2023-05-14T00:51:32.265Z,102056.00
2023-05-14T00:53:58.903Z,102064.72
2023-05-14T00:56:27.091Z,102062.81
2023-05-14T00:58:53.567Z,102055.13
2023-05-14T01:01:20.373Z,102049.94
2023-05-14T01:03:47.085Z,102057.88
2023-05-14T01:06:52.274Z,102061.69
2023-05-14T01:09:24.445Z,102047.22
2023-05-14T01:12:23.340Z,102058.44
2023-05-14T01:15:02.213Z,102054.03
2023-05-14T01:17:31.408Z,102052.41
2023-05-14T01:19:58.560Z,102052.41
2023-05-14T01:22:25.091Z,102047.22
2023-05-14T01:24:51.666Z,102046.94
2023-05-14T01:27:30.352Z,102045.53
2023-05-14T01:30:24.593Z,102046.66
2023-05-14T01:32:54.697Z,102050.47
2023-05-14T01:35:25.961Z,102054.03
2023-05-14T01:37:55.859Z,102043.34
2023-05-14T01:40:23.922Z,102034.63
2023-05-14T01:42:54.098Z,102035.44
2023-05-14T01:45:21.681Z,102028.34
2023-05-14T01:47:48.558Z,102030.25
2023-05-14T01:50:15.116Z,102037.63
2023-05-14T01:52:41.922Z,102031.06
2023-05-14T01:55:09.060Z,102028.59
2023-05-14T01:57:35.581Z,102037.06
2023-05-14T02:00:02.375Z,102029.16
2023-05-14T02:02:28.971Z,102022.84
2023-05-14T02:04:55.489Z,102013.00
2023-05-14T02:07:21.977Z,102018.47
2023-05-14T02:09:48.506Z,102004.00
2023-05-14T02:12:15.003Z,102008.88
2023-05-14T02:14:41.615Z,102006.16
2023-05-14T02:17:08.399Z,102012.72
2023-05-14T02:19:34.982Z,102012.72
2023-05-14T02:22:01.687Z,102009.16
2023-05-14T02:24:28.210Z,102005.03
2023-05-14T02:26:54.783Z,102009.66
2023-05-14T02:29:21.357Z,102010.50
2023-05-14T02:31:47.925Z,102015.13
2023-05-14T02:34:14.625Z,102019.78
2023-05-14T02:36:41.149Z,102005.59
2023-05-14T02:39:07.617Z,102015.66
2023-05-14T02:41:34.158Z,102021.13
2023-05-14T02:44:00.654Z,102012.13
2023-05-14T02:46:27.229Z,102013.22
2023-05-14T02:48:53.797Z,102003.38
2023-05-14T02:51:21.252Z,102014.31
2023-05-14T02:53:47.745Z,102006.13
2023-05-14T02:56:14.519Z,102005.28
2023-05-14T02:58:41.330Z,102007.19
2023-05-14T03:01:08.706Z,102008.56
2023-05-14T03:03:36.663Z,101999.78
2023-05-14T03:06:04.021Z,101995.16
2023-05-14T03:08:30.803Z,101998.16
2023-05-14T03:10:57.634Z,101997.06
2023-05-14T03:13:24.193Z,101994.63
2023-05-14T03:15:54.731Z,101989.97
2023-05-14T03:18:21.733Z,101998.16
2023-05-14T03:20:48.230Z,101998.44
2023-05-14T03:23:15.202Z,101994.84
2023-05-14T03:25:41.735Z,101994.03
2023-05-14T03:28:08.240Z,101982.59
2023-05-14T03:30:34.844Z,101988.03
2023-05-14T03:33:01.518Z,101982.84
2023-05-14T03:35:28.096Z,101985.56
2023-05-14T03:37:54.595Z,101985.03
2023-05-14T03:40:21.461Z,101994.03
2023-05-14T03:42:48.292Z,101986.94
2023-05-14T03:45:14.788Z,101982.28
2023-05-14T03:47:41.526Z,101971.91
2023-05-14T03:50:08.802Z,101973.53
2023-05-14T03:52:35.566Z,101976.25
2023-05-14T03:55:02.303Z,101980.09
2023-05-14T03:57:29.026Z,101973.81
2023-05-14T03:59:55.585Z,101975.72
2023-05-14T04:02:22.165Z,101974.06
2023-05-14T04:04:48.806Z,101971.34
2023-05-14T04:07:15.444Z,101979.53
2023-05-14T04:09:41.957Z,101979.81
2023-05-14T04:12:08.750Z,101985.25
2023-05-14T04:14:35.347Z,101973.81
2023-05-14T04:17:01.984Z,101994.81
2023-05-14T04:19:28.672Z,101987.69
2023-05-14T04:21:55.372Z,101992.06
2023-05-14T04:24:21.923Z,101983.88
2023-05-14T04:26:48.458Z,101986.88
2023-05-14T04:29:14.956Z,101984.97
2023-05-14T04:31:43.144Z,101984.44
2023-05-14T04:34:09.662Z,101994.50
2023-05-14T04:36:36.173Z,101978.41
2023-05-14T04:39:02.761Z,101985.50
2023-05-14T04:41:29.346Z,101994.78
2023-05-14T04:43:56.941Z,101992.88
2023-05-14T04:46:23.503Z,101992.06
2023-05-14T04:48:50.383Z,101984.16
2023-05-14T04:51:16.945Z,101984.97
2023-05-14T04:53:43.526Z,101980.56
2023-05-14T04:56:10.044Z,101977.31
2023-05-14T04:58:36.605Z,101982.47
2023-05-14T05:01:05.220Z,101980.03
2023-05-14T05:03:32.414Z,101988.22
2023-05-14T05:05:58.955Z,101985.75
2023-05-14T05:08:26.391Z,101985.75
2023-05-14T05:10:52.932Z,101992.28
2023-05-14T05:13:19.452Z,101999.66
2023-05-14T05:15:45.980Z,102005.41
2023-05-14T05:18:12.810Z,102006.22
2023-05-14T05:20:39.331Z,102013.84
2023-05-14T05:23:05.852Z,102004.81
2023-05-14T05:25:32.440Z,102006.75
2023-05-14T05:27:59.246Z,101992.28
2023-05-14T05:30:26.008Z,101996.09
2023-05-14T05:32:52.840Z,102000.47
2023-05-14T05:35:19.602Z,102001.28
2023-05-14T05:37:46.220Z,102002.38
2023-05-14T05:40:14.433Z,102005.09
2023-05-14T05:42:41.562Z,102007.84
2023-05-14T05:45:08.654Z,102007.00
2023-05-14T05:47:35.246Z,102007.00
2023-05-14T05:50:01.842Z,102002.63
2023-05-14T05:52:28.494Z,102007.25
2023-05-14T05:54:55.048Z,102015.19
2023-05-14T05:57:22.898Z,102017.34
2023-05-14T05:59:50.080Z,102014.09
2023-05-14T06:02:16.625Z,102013.81
2023-05-14T06:04:43.225Z,102014.09
2023-05-14T06:07:09.897Z,102010.78
2023-05-14T06:09:36.403Z,102013.25
2023-05-14T06:12:02.922Z,102015.97
2023-05-14T06:14:29.504Z,102014.34
2023-05-14T06:16:56.200Z,102024.44
2023-05-14T06:19:23.102Z,102031.81
2023-05-14T06:21:49.681Z,102024.16
2023-05-14T06:24:16.759Z,102027.97
2023-05-14T06:26:43.267Z,102023.63
2023-05-14T06:29:09.825Z,102024.72
2023-05-14T06:31:36.369Z,102025.78
2023-05-14T06:34:02.916Z,102026.59
2023-05-14T06:36:29.429Z,102032.06
2023-05-14T06:38:55.926Z,102025.78
2023-05-14T06:41:22.835Z,102021.13
2023-05-14T06:43:49.464Z,102027.44
2023-05-14T06:46:16.137Z,102034.78
2023-05-14T06:48:42.687Z,102029.06
2023-05-14T06:51:10.873Z,102020.31
2023-05-14T06:53:37.471Z,102025.78
2023-05-14T06:56:04.165Z,102020.59
2023-05-14T06:58:30.724Z,102023.88
2023-05-14T07:00:58.601Z,102027.69
2023-05-14T07:03:25.154Z,102016.78
2023-05-14T07:05:51.918Z,102009.69
2023-05-14T07:08:18.459Z,102013.50
2023-05-14T07:10:44.997Z,102014.31
2023-05-14T07:13:11.494Z,102012.41
2023-05-14T07:15:38.062Z,102004.22
2023-05-14T07:18:04.650Z,102007.75
2023-05-14T07:20:31.167Z,102006.13
2023-05-14T07:22:57.723Z,102007.22
2023-05-14T07:25:24.307Z,101996.03
2023-05-14T07:27:50.808Z,102000.41
2023-05-14T07:30:17.422Z,101997.66
2023-05-14T07:32:44.332Z,101998.75
2023-05-14T07:35:11.709Z,101999.59
2023-05-14T07:37:38.569Z,101991.13
2023-05-14T07:40:05.727Z,101995.75
2023-05-14T07:42:36.386Z,102003.13
2023-05-14T07:45:04.854Z,102005.84
2023-05-14T07:47:31.590Z,102001.50
2023-05-14T07:49:58.519Z,102000.41
2023-05-14T07:52:25.272Z,101994.94
2023-05-14T07:54:52.176Z,101990.56
2023-05-14T07:57:19.568Z,101993.31
2023-05-14T07:59:46.729Z,101992.22
2023-05-14T08:02:14.105Z,101984.31
2023-05-14T08:04:40.788Z,101996.84
2023-05-14T08:07:08.573Z,101983.22
2023-05-14T08:09:35.215Z,101990.31
2023-05-14T08:12:01.786Z,101979.38
2023-05-14T08:14:28.765Z,101994.94
2023-05-14T08:16:55.362Z,101994.94
2023-05-14T08:19:23.172Z,101991.41
2023-05-14T08:21:49.948Z,102003.13
2023-05-14T08:24:16.742Z,102000.41
2023-05-14T08:26:43.396Z,102006.94
2023-05-14T08:29:11.006Z,101991.66
2023-05-14T08:31:38.446Z,101987.56
2023-05-14T08:34:05.226Z,101992.22
2023-05-14T08:36:32.857Z,101995.75
2023-05-14T08:38:59.414Z,101994.13
2023-05-14T08:41:25.917Z,101984.59
2023-05-14T08:44:11.318Z,101992.22
2023-05-14T08:46:38.875Z,101981.88
2023-05-14T08:49:40.953Z,101973.94
2023-05-14T08:52:09.013Z,101964.69
2023-05-14T08:54:35.733Z,101965.50
2023-05-14T08:57:06.223Z,101972.00
2023-05-14T08:59:32.683Z,101963.59
2023-05-14T09:02:02.720Z,101971.78
2023-05-14T09:04:31.305Z,101962.75
2023-05-14T09:07:00.301Z,101967.41
2023-05-14T09:09:28.014Z,101962.75
2023-05-14T09:11:54.693Z,101967.13
2023-05-14T09:14:22.700Z,101960.56
2023-05-14T09:16:51.151Z,101954.88
2023-05-14T09:19:21.838Z,101952.13
2023-05-14T09:21:50.034Z,101956.78
2023-05-14T09:24:24.711Z,101954.31
2023-05-14T09:26:59.015Z,101938.75
2023-05-14T09:29:26.593Z,101946.94
2023-05-14T09:31:55.014Z,101961.38
2023-05-14T09:34:25.785Z,101956.78
2023-05-14T09:37:03.430Z,101957.59
2023-05-14T09:39:30.832Z,101954.59
2023-05-14T09:41:57.769Z,101944.78
2023-05-14T09:44:24.948Z,101949.94
2023-05-14T09:46:52.651Z,101954.34
2023-05-14T09:49:19.407Z,101949.94
2023-05-14T09:51:45.989Z,101939.03
2023-05-14T09:54:12.497Z,101949.94
2023-05-14T09:56:39.698Z,101949.69
2023-05-14T09:59:06.446Z,101936.06
2023-05-14T10:01:33.642Z,101939.31
2023-05-14T10:04:03.814Z,101943.16
2023-05-14T10:06:36.286Z,101941.22
2023-05-14T10:09:12.126Z,101949.16
2023-05-14T10:11:43.785Z,101944.53
2023-05-14T10:14:18.684Z,101937.97
2023-05-14T10:16:50.956Z,101937.16
2023-05-14T10:19:20.057Z,101940.44
2023-05-14T10:21:55.715Z,101927.59
2023-05-14T10:24:22.705Z,101927.34
2023-05-14T10:26:49.680Z,101936.63
2023-05-14T10:29:16.449Z,101933.06
2023-05-14T10:31:50.750Z,101930.91
2023-05-14T10:34:43.863Z,101926.53
2023-05-14T10:37:25.545Z,101932.53
2023-05-14T10:40:02.278Z,101924.63
2023-05-14T10:42:35.384Z,101918.06
2023-05-14T10:45:07.755Z,101931.72
2023-05-14T10:47:39.497Z,101919.97
2023-05-14T10:50:08.010Z,101920.78
2023-05-14T10:52:35.420Z,101922.19
2023-05-14T10:55:10.193Z,101915.63
2023-05-14T10:57:39.515Z,101912.88
2023-05-14T11:00:07.847Z,101911.53
2023-05-14T11:02:39.893Z,101903.34
2023-05-14T11:05:15.453Z,101904.16
2023-05-14T11:07:44.609Z,101894.88
2023-05-14T11:10:18.960Z,101901.97
2023-05-14T11:12:47.598Z,101900.09
2023-05-14T11:15:21.851Z,101898.19
2023-05-14T11:17:49.774Z,101888.06
2023-05-14T11:20:17.375Z,101898.72
2023-05-14T11:22:45.234Z,101893.25
2023-05-14T11:25:15.620Z,101893.81
2023-05-14T11:27:43.709Z,101885.63
2023-05-14T11:30:17.636Z,101882.91
2023-05-14T11:32:48.950Z,101873.34
2023-05-14T11:35:16.835Z,101873.34
2023-05-14T11:37:44.131Z,101868.44
2023-05-14T11:40:16.624Z,101866.00
2023-05-14T11:42:43.477Z,101861.06
2023-05-14T11:45:14.500Z,101866.53
2023-05-14T11:47:41.889Z,101873.38
2023-05-14T11:50:09.858Z,101858.91
2023-05-14T11:52:41.634Z,101854.25
2023-05-14T11:55:12.524Z,101862.16
2023-05-14T11:57:39.656Z,101854.78
2023-05-14T12:00:13.500Z,101860.81
2023-05-14T12:02:40.384Z,101852.34
2023-05-14T12:05:08.910Z,101858.59
2023-05-14T12:07:36.089Z,101856.44
2023-05-14T12:10:03.529Z,101851.78
2023-05-14T12:12:35.481Z,101858.06
2023-05-14T12:15:02.071Z,101840.34
2023-05-14T12:17:28.605Z,101843.88
2023-05-14T12:19:57.309Z,101845.50
2023-05-14T12:22:24.013Z,101835.41
2023-05-14T12:24:54.829Z,101844.16
2023-05-14T12:27:29.714Z,101837.59
2023-05-14T12:30:12.887Z,101839.00
2023-05-14T12:32:47.168Z,101838.16
2023-05-14T12:35:13.757Z,101837.09
2023-05-14T12:37:40.592Z,101834.06
2023-05-14T12:40:10.437Z,101828.34
2023-05-14T12:42:37.029Z,101832.72
2023-05-14T12:45:07.133Z,101825.09
2023-05-14T12:47:33.980Z,101824.81
2023-05-14T12:50:00.560Z,101821.25
2023-05-14T12:52:37.448Z,101828.09
2023-05-14T12:55:07.179Z,101831.34
2023-05-14T12:57:35.400Z,101827.53
2023-05-14T13:00:06.156Z,101819.06
2023-05-14T13:02:32.914Z,101823.44
2023-05-14T13:05:00.173Z,101818.53
2023-05-14T13:07:27.035Z,101821.78
2023-05-14T13:09:53.673Z,101824.28
2023-05-14T13:12:20.202Z,101816.88
2023-05-14T13:14:46.739Z,101822.88
2023-05-14T13:17:13.319Z,101820.16
2023-05-14T13:19:39.796Z,101819.59
2023-05-14T13:22:06.399Z,101827.81
2023-05-14T13:24:34.035Z,101831.09
2023-05-14T13:27:01.021Z,101828.88
2023-05-14T13:29:29.666Z,101831.38
2023-05-14T13:31:56.145Z,101825.63
2023-05-14T13:34:22.640Z,101824.50
2023-05-14T13:36:49.838Z,101825.06
2023-05-14T13:39:16.810Z,101832.16
2023-05-14T13:41:43.338Z,101831.91
2023-05-14T13:44:09.831Z,101834.34
2023-05-14T13:46:36.494Z,101841.44
2023-05-14T13:49:03.072Z,101837.63
2023-05-14T13:51:29.928Z,101838.16
2023-05-14T13:53:56.712Z,101833.25
2023-05-14T13:56:23.561Z,101828.63
2023-05-14T13:58:50.180Z,101832.16
2023-05-14T14:01:16.818Z,101824.50
2023-05-14T14:03:43.311Z,101833.25
2023-05-14T14:06:09.824Z,101832.16
2023-05-14T14:08:36.324Z,101831.03
2023-05-14T14:11:02.872Z,101829.97
2023-05-14T14:13:29.595Z,101827.75
2023-05-14T14:15:56.204Z,101823.94
2023-05-14T14:18:22.697Z,101826.41
2023-05-14T14:20:49.299Z,101821.75
2023-05-14T14:23:15.853Z,101821.19
2023-05-14T14:25:42.403Z,101816.53
2023-05-14T14:28:08.915Z,101824.47
2023-05-14T14:30:35.539Z,101816.25
2023-05-14T14:33:02.131Z,101825.00
2023-05-14T14:35:28.722Z,101831.28
2023-05-14T14:37:55.968Z,101824.72
2023-05-14T14:40:23.915Z,101818.44
2023-05-14T14:42:50.682Z,101825.03
2023-05-14T14:45:17.396Z,101818.47
2023-05-14T14:47:48.992Z,101818.47
2023-05-14T14:50:15.561Z,101817.38
2023-05-14T14:52:46.007Z,101815.16
2023-05-14T14:55:12.980Z,101815.16
2023-05-14T14:57:39.593Z,101812.97
2023-05-14T15:00:07.018Z,101811.88
2023-05-14T15:02:33.693Z,101818.16
2023-05-14T15:05:00.344Z,101818.72
2023-05-14T15:07:26.833Z,101814.06
2023-05-14T15:09:53.328Z,101821.16
2023-05-14T15:12:20.044Z,101813.78
2023-05-14T15:14:46.649Z,101813.50
2023-05-14T15:17:13.139Z,101805.00
2023-05-14T15:19:39.627Z,101805.81
2023-05-14T15:22:06.226Z,101802.03
2023-05-14T15:24:32.768Z,101805.56
2023-05-14T15:26:59.322Z,101797.88
2023-05-14T15:29:25.846Z,101797.88
2023-05-14T15:31:52.407Z,101802.00
2023-05-14T15:34:18.927Z,101791.88
2023-05-14T15:36:45.449Z,101800.06
2023-05-14T15:39:12.420Z,101789.69
2023-05-14T15:41:39.074Z,101788.56
2023-05-14T15:44:05.663Z,101791.31
2023-05-14T15:46:32.461Z,101790.19
2023-05-14T15:48:59.201Z,101788.00
2023-05-14T15:51:25.712Z,101788.00
2023-05-14T15:53:54.201Z,101790.47
2023-05-14T15:56:22.821Z,101788.84
2023-05-14T15:58:49.941Z,101783.63
2023-05-14T16:01:16.752Z,101786.34
2023-05-14T16:03:43.547Z,101776.22
2023-05-14T16:06:11.269Z,101786.34
2023-05-14T16:08:38.351Z,101794.28
2023-05-14T16:11:05.525Z,101795.94
2023-05-14T16:13:32.396Z,101788.53
2023-05-14T16:15:59.698Z,101794.81
2023-05-14T16:18:26.380Z,101796.44
2023-05-14T16:20:53.510Z,101795.34
2023-05-14T16:23:20.045Z,101794.25
2023-05-14T16:25:46.623Z,101782.22
2023-05-14T16:28:13.513Z,101777.56
2023-05-14T16:30:40.114Z,101779.19
2023-05-14T16:33:06.922Z,101785.47
2023-05-14T16:35:33.926Z,101782.72
2023-05-14T16:38:00.644Z,101786.31
2023-05-14T16:40:28.377Z,101771.53
2023-05-14T16:42:54.885Z,101777.81
2023-05-14T16:45:21.672Z,101782.19
2023-05-14T16:47:48.379Z,101785.47
2023-05-14T16:50:14.965Z,101788.47
2023-05-14T16:52:41.455Z,101780.25
2023-05-14T16:55:08.519Z,101777.25
2023-05-14T16:57:35.228Z,101789.00
2023-05-14T17:00:04.516Z,101778.88
2023-05-14T17:02:31.187Z,101785.16
2023-05-14T17:04:57.981Z,101778.63
2023-05-14T17:07:24.562Z,101767.69
2023-05-14T17:09:51.060Z,101777.50
2023-05-14T17:12:17.542Z,101785.72
2023-05-14T17:14:44.299Z,101780.25
2023-05-14T17:17:10.809Z,101779.44
2023-05-14T17:19:37.300Z,101778.31
2023-05-14T17:22:05.882Z,101772.84
2023-05-14T17:24:32.481Z,101788.16
2023-05-14T17:26:59.150Z,101784.63
2023-05-14T17:29:26.250Z,101777.22
2023-05-14T17:31:52.901Z,101769.81
2023-05-14T17:34:19.450Z,101774.47
2023-05-14T17:36:46.005Z,101773.38
2023-05-14T17:39:12.514Z,101768.75
2023-05-14T17:41:39.031Z,101771.47
2023-05-14T17:44:05.677Z,101759.69
2023-05-14T17:46:33.709Z,101769.56
2023-05-14T17:49:00.437Z,101764.09
2023-05-14T17:51:26.993Z,101755.88
2023-05-14T17:53:53.507Z,101758.59
2023-05-14T17:56:20.343Z,101755.06
2023-05-14T17:58:46.906Z,101763.28
2023-05-14T18:01:13.521Z,101760.53
2023-05-14T18:03:40.179Z,101766.81
2023-05-14T18:06:07.003Z,101768.75
2023-05-14T18:08:33.520Z,101771.19
2023-05-14T18:11:00.873Z,101769.56
2023-05-14T18:13:27.639Z,101766.28
2023-05-14T18:15:56.374Z,101769.81
2023-05-14T18:18:23.971Z,101776.09
2023-05-14T18:20:51.963Z,101779.69
2023-05-14T18:23:18.945Z,101777.22
2023-05-14T18:25:45.709Z,101770.13
2023-05-14T18:28:12.869Z,101772.84
2023-05-14T18:30:39.726Z,101771.75
2023-05-14T18:33:06.742Z,101762.19
2023-05-14T18:35:33.473Z,101765.75
2023-05-14T18:38:00.041Z,101763.81
2023-05-14T18:40:26.639Z,101769.56
2023-05-14T18:42:53.176Z,101769.56
2023-05-14T18:45:20.331Z,101771.50
2023-05-14T18:47:47.911Z,101778.38
2023-05-14T18:50:14.524Z,101780.00
2023-05-14T18:52:41.149Z,101779.19
2023-05-14T18:55:08.132Z,101778.38
2023-05-14T18:57:34.721Z,101779.44
2023-05-14T19:00:02.073Z,101776.69
2023-05-14T19:02:28.982Z,101783.84
2023-05-14T19:04:55.603Z,101783.84
2023-05-14T19:07:22.590Z,101783.28
2023-05-14T19:09:49.197Z,101786.31
2023-05-14T19:12:16.191Z,101784.41
2023-05-14T19:14:42.868Z,101779.19
2023-05-14T19:17:09.520Z,101784.66
2023-05-14T19:19:36.474Z,101773.19
2023-05-14T19:22:03.053Z,101780.28
2023-05-14T19:24:29.622Z,101784.13
2023-05-14T19:26:56.209Z,101779.78
2023-05-14T19:29:22.730Z,101779.22
2023-05-14T19:31:50.002Z,101779.22
2023-05-14T19:34:16.978Z,101771.00
2023-05-14T19:36:43.551Z,101772.13
2023-05-14T19:39:10.964Z,101769.38
2023-05-14T19:41:37.474Z,101768.84
2023-05-14T19:44:04.013Z,101756.78
2023-05-14T19:46:30.598Z,101763.34
2023-05-14T19:48:57.165Z,101760.91
2023-05-14T19:51:23.675Z,101766.38
2023-05-14T19:53:50.201Z,101771.88
2023-05-14T19:56:16.797Z,101764.72
2023-05-14T19:58:44.221Z,101767.75
2023-05-14T20:01:11.963Z,101765.03
2023-05-14T20:03:38.848Z,101768.88
2023-05-14T20:06:06.672Z,101766.94
2023-05-14T20:08:33.378Z,101766.41
2023-05-14T20:10:59.899Z,101769.97
2023-05-14T20:13:26.483Z,101766.69
2023-05-14T20:15:53.244Z,101771.34
2023-05-14T20:18:19.781Z,101770.78
2023-05-14T20:20:46.889Z,101771.59
2023-05-14T20:23:13.479Z,101773.53
2023-05-14T20:25:40.009Z,101768.06
2023-05-14T20:28:06.668Z,101770.28
2023-05-14T20:30:33.282Z,101761.25
2023-05-14T20:32:59.963Z,101773.28
2023-05-14T20:35:26.890Z,101776.84
2023-05-14T20:37:53.653Z,101771.63
2023-05-14T20:40:21.413Z,101768.91
2023-05-14T20:42:50.350Z,101769.19
2023-05-14T20:45:17.290Z,101771.94
2023-05-14T20:47:44.274Z,101771.13
2023-05-14T20:50:11.603Z,101773.84
2023-05-14T20:52:38.161Z,101763.19
2023-05-14T20:55:05.137Z,101770.56
2023-05-14T20:57:31.831Z,101766.19
2023-05-14T20:59:58.470Z,101756.63
2023-05-14T21:02:25.190Z,101756.34
2023-05-14T21:04:52.366Z,101750.88
2023-05-14T21:07:18.998Z,101753.91
2023-05-14T21:09:50.780Z,101753.06
2023-05-14T21:12:17.311Z,101755.00
2023-05-14T21:14:43.797Z,101747.91
2023-05-14T21:17:11.030Z,101736.13
2023-05-14T21:19:37.593Z,101748.97
2023-05-14T21:22:04.252Z,101740.78
2023-05-14T21:24:30.762Z,101729.56
2023-05-14T21:26:57.597Z,101733.13
2023-05-14T21:29:24.441Z,101740.50
2023-05-14T21:31:51.034Z,101735.03
2023-05-14T21:34:17.692Z,101736.97
2023-05-14T21:36:44.371Z,101740.81
2023-05-14T21:39:10.963Z,101758.84
2023-05-14T21:41:37.508Z,101762.94
2023-05-14T21:44:04.015Z,101775.28
2023-05-14T21:46:31.027Z,101764.88
2023-05-14T21:48:57.662Z,101778.00
2023-05-14T21:51:24.457Z,101767.06
2023-05-14T21:53:50.983Z,101755.28
2023-05-14T21:56:17.496Z,101754.47
2023-05-14T21:58:44.833Z,101746.53
2023-05-14T22:01:11.726Z,101749.81
2023-05-14T22:03:38.553Z,101744.09
2023-05-14T22:06:05.775Z,101740.00
2023-05-14T22:08:32.298Z,101736.16
2023-05-14T22:10:58.891Z,101739.19
2023-05-14T22:13:25.478Z,101734.81
2023-05-14T22:16:01.484Z,101737.53
2023-05-14T22:18:38.835Z,101734.00
2023-05-14T22:21:06.126Z,101733.75
2023-05-14T22:23:32.670Z,101723.31
2023-05-14T22:25:59.258Z,101724.69
2023-05-14T22:28:25.854Z,101721.69
2023-05-14T22:30:52.435Z,101711.31
2023-05-14T22:33:19.487Z,101711.31
2023-05-14T22:35:46.230Z,101713.22
2023-05-14T22:38:14.088Z,101709.94
2023-05-14T22:40:40.776Z,101720.34
2023-05-14T22:43:07.298Z,101713.78
2023-05-14T22:45:33.866Z,101707.50
2023-05-14T22:48:00.539Z,101705.88
2023-05-14T22:50:27.242Z,101705.31
2023-05-14T22:52:53.743Z,101702.59
2023-05-14T22:55:20.301Z,101708.06
2023-05-14T22:57:46.916Z,101702.59
2023-05-14T23:00:13.972Z,101701.22
2023-05-14T23:02:40.656Z,101705.63
2023-05-14T23:05:08.555Z,101696.03
2023-05-14T23:07:35.615Z,101689.22
2023-05-14T23:10:02.231Z,101687.28
2023-05-14T23:12:28.889Z,101683.75
2023-05-14T23:14:55.480Z,101690.03
2023-05-14T23:17:22.187Z,101686.78
2023-05-14T23:19:48.872Z,101692.53
2023-05-14T23:22:15.628Z,101681.84
2023-05-14T23:24:42.128Z,101685.13
2023-05-14T23:27:08.742Z,101691.69
2023-05-14T23:29:35.558Z,101688.44
2023-05-14T23:32:02.179Z,101688.44
2023-05-14T23:34:28.814Z,101680.50
2023-05-14T23:36:55.779Z,101686.25
2023-05-14T23:39:22.656Z,101684.31
2023-05-14T23:41:49.224Z,101680.22
2023-05-14T23:44:15.740Z,101677.50
2023-05-14T23:46:42.314Z,101678.59
2023-05-14T23:49:08.974Z,101670.69
2023-05-14T23:51:36.652Z,101671.50
2023-05-14T23:54:03.303Z,101668.22
2023-05-14T23:56:29.828Z,101656.47
2023-05-14T23:58:56.771Z,101653.75
